LIMC Airport Information

Runway Information
Runway 17L Length 12861 ft width 197 ft
Elevation 745 ft Threshold 3094 ft Heading 170
Runway 35R Length 12861 ft Width 197 ft
Elevation 691 ft Threshold 0 ft Heading 350
Runway 17R Length 12861 ft width 197 ft
Elevation 764 ft Threshold 0 ft Heading 170
Runway 35L Length 12861 ft Width 197 ft
Elevation 696 ft Threshold 1329 ft Heading 350
Airport Frequencies
Type APP Name MILANO APP Frequency 132.7 MHZ
Type ATIS Name ATIS Frequency 120.025 MHZ
Type CLD Name CLNC DEL Frequency 120.9 MHZ
Type DEP Name MILANO DEP Frequency 126.75 MHZ
Type GND Name GND Frequency 121.9 MHZ
Type TWR Name TWR Frequency 119 MHZ
Airport Navaids
Type VOR-DME Name Malpensa Frequency 111200 KHZ
Type NDB Name Malpensa Frequency 364 KHZ
Airport Weather Information & NOTAM

Deprecated: The each() function is deprecated. This message will be suppressed on further calls in /home/jyhjkdzw/public_html/lib/functions.php on line 130
ADDS - METARS form results

(0231 UTC 28 September 2021)
Data provider http://aviationweather.gov/metar/data/
 
METAR text: LIMC 280220Z 02004KT 8000 NSC 14/14 Q1020 NOSIG
Conditions at: LIMC (MILANO/MALPENSA , IT) observed 0220 UTC 28 September 2021
Temperature: 14.0°C (57°F)
Dewpoint: 14.0°C (57°F) [RH = 100%]
Pressure (altimeter): 30.12 inches Hg (1020.0 mb)
Winds: from the NNE (20 degrees) at 5 MPH (4 knots; 2.1 m/s)
Visibility: 5 miles ( 8 km)
Ceiling: at least 12,000 feet AGL
Clouds: sky clear below 12,000 feet AGL
Weather: no significant weather observed at this time

METAR text: LIMC 280150Z 02003KT 8000 NSC 13/13 Q1020 NOSIG
Conditions at: LIMC (MILANO/MALPENSA , IT) observed 0150 UTC 28 September 2021
Temperature: 13.0°C (55°F)
Dewpoint: 13.0°C (55°F) [RH = 100%]
Pressure (altimeter): 30.12 inches Hg (1020.0 mb)
Winds: from the NNE (20 degrees) at 3 MPH (3 knots; 1.5 m/s)
Visibility: 5 miles ( 8 km)
Ceiling: at least 12,000 feet AGL
Clouds: sky clear below 12,000 feet AGL
Weather: no significant weather observed at this time

Forecast for: LIMC (MILANO/MALPENSA , IT)
Text: TAF LIMC 272300Z 2800/2906 VRB05KT CAVOK
Forecast period: 0000 UTC 28 September 2021 to 0600 UTC 29 September 2021
Forecast type: FROM: standard forecast or significant change
Winds: variable direction winds at 6 MPH (5 knots; 2.6 m/s)
Visibility: 6 or more miles (10+ km)
Ceiling: unknown
Clouds: missing
Weather: NSW  (no significant weather)